Impacts METAR Board
IDs:

KIAH - Houston/Bush Intl, TX, US

Updated at: 1300 UTC 07 Jul 2020
Potential Impact None Slight Moderate High
Time 07/01Z 07/02Z 07/03Z 07/04Z 07/05Z 07/06Z 07/07Z 07/08Z 07/09Z 07/10Z 07/11Z 07/12Z 07/13Z
Temp89 87 85 84 83 82 82 82 81 81 81 81 83
Dewpt73 72 75 76 76 77 77 77 77 77 77 78 78
Altim29.88 29.88 29.89 29.90 29.92 29.92 29.94 29.93 29.94 29.94 29.94 29.95 29.96
VIS10 10 10 10 10 10 10 10 10 10 10 10 10
CIG250 250 250 250 -- -- -- -- 250 -- 12 180 180
CoverBKNBKNBKNBKNSCTFEWSCTSCTBKNSCTBKNBKNBKN
FltCatVFRVFRVFRVFRVFRVFRVFRVFRVFRVFRMVFRVFRVFR
WX--------------------------
WDir1901801701701801902001801802000160170
WSpd5 5 6 7 5 6 4 5 4 3 0 4 4
WGst-- -- -- -- -- -- -- -- -- -- -- -- --
Raw hourly METARs
KIAH 070053Z 19005KT 10SM FEW048 FEW170 BKN250 32/23 A2988 RMK AO2 SLP116 T03170228
KIAH 070153Z 18005KT 10SM SCT170 BKN250 31/22 A2988 RMK AO2 SLP118 T03060222
KIAH 070253Z 17006KT 10SM FEW170 BKN250 29/24 A2989 RMK AO2 SLP121 T02940239 53007
KIAH 070353Z 17007KT 10SM FEW170 BKN250 29/24 A2990 RMK AO2 SLP125 T02890244
KIAH 070453Z 18005KT 10SM FEW130 SCT250 28/24 A2992 RMK AO2 SLP129 T02830244
KIAH 070553Z 19006KT 10SM FEW015 FEW130 FEW250 28/25 A2992 RMK AO2 SLP131 T02780250 10322 20278 403280278 51010
KIAH 070653Z 20004KT 10SM SCT016 SCT150 SCT250 28/25 A2994 RMK AO2 SLP136 T02780250
KIAH 070753Z 18005KT 10SM FEW016 SCT140 SCT250 28/25 A2993 RMK AO2 SLP135 T02780250
KIAH 070853Z 18004KT 10SM SCT016 SCT140 BKN250 27/25 A2994 RMK AO2 SLP136 T02720250 51005
KIAH 070953Z 20003KT 10SM SCT013 SCT250 27/25 A2994 RMK AO2 SLP135 T02720250
KIAH 071053Z 00000KT 10SM BKN012 BKN250 27/25 A2994 RMK AO2 SLP139 T02720250
KIAH 071153Z 16004KT 10SM FEW012 BKN180 BKN250 27/26 A2995 RMK AO2 SLP141 T02720256 10278 20267 53005
KIAH 071253Z 17004KT 10SM SCT012 BKN180 BKN250 28/26 A2996 RMK AO2 SLP144 T02830256



Page loaded:  13:50 UTC  |   06:50 AM Pacific  |   07:50 AM Mountain  |   08:50 AM Central  |   09:50 AM Eastern

 

ADVISORIES

FORECASTS

FORECASTS

OBSERVATIONS

USER TOOLS

ABOUT US